createdAt,value
2023-03-13T00:02:06.531Z,19.60
2023-03-13T00:04:34.558Z,20.75
2023-03-13T00:07:02.293Z,23.77
2023-03-13T00:09:30.092Z,14.45
2023-03-13T00:11:58.045Z,12.70
2023-03-13T00:14:27.103Z,16.67
2023-03-13T00:16:54.844Z,17.35
2023-03-13T00:19:22.564Z,14.52
2023-03-13T00:21:50.284Z,17.33
2023-03-13T00:24:18.125Z,15.43
2023-03-13T00:26:45.833Z,17.33
2023-03-13T00:29:13.563Z,18.67
2023-03-13T00:31:42.881Z,17.65
2023-03-13T00:34:11.002Z,18.50
2023-03-13T00:36:38.760Z,13.82
2023-03-13T00:39:07.816Z,18.75
2023-03-13T00:41:37.926Z,14.55
2023-03-13T00:44:06.403Z,23.33
2023-03-13T00:46:34.236Z,15.23
2023-03-13T00:49:03.538Z,12.20
2023-03-13T00:51:31.804Z,16.63
2023-03-13T00:54:00.973Z,12.80
2023-03-13T00:56:29.364Z,25.17
2023-03-13T00:58:57.109Z,17.20
2023-03-13T01:01:26.599Z,15.80
2023-03-13T01:03:57.393Z,17.52
2023-03-13T01:06:28.446Z,14.18
2023-03-13T01:08:59.040Z,15.38
2023-03-13T01:11:30.189Z,15.32
2023-03-13T01:13:59.987Z,10.95
2023-03-13T01:16:29.374Z,10.32
2023-03-13T01:19:00.156Z,12.52
2023-03-13T01:21:29.584Z,15.27
2023-03-13T01:23:57.653Z,14.90
2023-03-13T01:26:26.214Z,15.00
2023-03-13T01:28:55.380Z,12.77
2023-03-13T01:31:25.210Z,21.70
2023-03-13T01:33:56.546Z,11.10
2023-03-13T01:36:24.688Z,11.85
2023-03-13T01:38:55.444Z,11.75
2023-03-13T01:41:24.910Z,17.92
2023-03-13T01:43:53.454Z,11.43
2023-03-13T01:46:24.746Z,15.15
2023-03-13T01:49:08.808Z,15.07
2023-03-13T01:51:46.667Z,17.20
2023-03-13T01:54:20.316Z,10.48
2023-03-13T01:56:52.634Z,15.02
2023-03-13T01:59:23.562Z,16.52
2023-03-13T02:01:55.080Z,11.77
2023-03-13T02:04:24.783Z,10.48
2023-03-13T02:06:58.906Z,15.85
2023-03-13T02:09:31.668Z,15.90
2023-03-13T02:12:05.659Z,14.40
2023-03-13T02:14:36.388Z,18.77
2023-03-13T02:17:05.893Z,13.55
2023-03-13T02:19:40.932Z,14.63
2023-03-13T02:22:15.853Z,15.40
2023-03-13T02:24:50.682Z,13.57
2023-03-13T02:27:19.900Z,18.60
2023-03-13T02:29:48.903Z,12.70
2023-03-13T02:32:17.099Z,12.80
2023-03-13T02:34:48.016Z,13.30
2023-03-13T02:37:16.496Z,16.42
2023-03-13T02:39:48.952Z,17.98
2023-03-13T02:42:21.283Z,13.32
2023-03-13T02:44:51.004Z,13.77
2023-03-13T02:47:20.838Z,15.02
2023-03-13T02:49:50.847Z,16.60
2023-03-13T02:52:23.763Z,15.50
2023-03-13T02:54:54.116Z,18.55
2023-03-13T02:57:24.199Z,17.85
2023-03-13T02:59:51.901Z,15.20
2023-03-13T03:02:20.002Z,17.85
2023-03-13T03:04:47.718Z,20.75
2023-03-13T03:07:15.474Z,19.98
2023-03-13T03:09:43.385Z,12.25
2023-03-13T03:12:17.145Z,12.00
2023-03-13T03:14:46.297Z,20.92
2023-03-13T03:17:14.952Z,16.02
2023-03-13T03:19:42.900Z,19.77
2023-03-13T03:22:11.459Z,18.52
2023-03-13T03:24:39.138Z,17.05
2023-03-13T03:27:07.012Z,20.30
2023-03-13T03:29:40.934Z,14.60
2023-03-13T03:32:10.964Z,17.83
2023-03-13T03:34:39.044Z,18.73
2023-03-13T03:37:07.526Z,11.13
2023-03-13T03:39:36.669Z,14.07
2023-03-13T03:42:06.348Z,17.38
2023-03-13T03:44:34.137Z,16.60
2023-03-13T03:47:01.976Z,12.25
2023-03-13T03:49:35.903Z,13.88
2023-03-13T03:52:03.703Z,13.50
2023-03-13T03:54:36.220Z,15.80
2023-03-13T03:57:04.329Z,18.27
2023-03-13T03:59:32.379Z,20.42
2023-03-13T04:02:05.363Z,15.88
2023-03-13T04:04:34.260Z,17.02
2023-03-13T04:07:10.661Z,17.73
2023-03-13T04:09:40.049Z,16.02
2023-03-13T04:12:11.178Z,16.20
2023-03-13T04:14:43.485Z,11.10
2023-03-13T04:17:13.314Z,18.08
2023-03-13T04:19:42.340Z,9.43
2023-03-13T04:22:11.536Z,13.15
2023-03-13T04:24:44.234Z,11.23
2023-03-13T04:27:11.990Z,15.35
2023-03-13T04:29:40.039Z,10.60
2023-03-13T04:35:14.370Z,10.13
2023-03-13T04:38:15.542Z,9.93
2023-03-13T04:40:58.582Z,16.95
2023-03-13T04:43:49.115Z,8.35
2023-03-13T04:46:40.406Z,4.85
2023-03-13T04:49:30.929Z,7.45
2023-03-13T04:52:22.176Z,6.15
2023-03-13T04:55:11.824Z,10.02
2023-03-13T04:57:59.834Z,7.85
2023-03-13T05:00:59.706Z,6.20
2023-03-13T05:03:46.361Z,5.07
2023-03-13T05:06:37.523Z,6.28
2023-03-13T05:12:05.797Z,6.05
2023-03-13T05:14:52.584Z,3.30
2023-03-13T05:17:38.817Z,5.22
2023-03-13T05:20:30.460Z,7.07
2023-03-13T05:23:16.564Z,4.60
2023-03-13T05:26:00.551Z,6.68
2023-03-13T05:29:01.983Z,5.15
2023-03-13T05:31:40.946Z,4.45
2023-03-13T05:34:37.700Z,2.17
2023-03-13T05:37:16.224Z,4.65
2023-03-13T05:40:16.287Z,3.67
2023-03-13T05:45:50.051Z,4.35
2023-03-13T05:48:36.352Z,5.57
2023-03-13T05:51:13.038Z,6.22
2023-03-13T05:54:09.708Z,3.17
2023-03-13T05:56:55.376Z,5.10
2023-03-13T05:59:35.067Z,3.80
2023-03-13T06:02:42.336Z,4.63
2023-03-13T06:05:13.869Z,6.30
2023-03-13T06:07:41.643Z,3.15
2023-03-13T06:10:10.955Z,5.05
2023-03-13T06:12:39.147Z,5.28
2023-03-13T06:15:11.698Z,3.63
2023-03-13T06:17:59.970Z,4.32
2023-03-13T06:20:27.712Z,6.63
2023-03-13T06:22:55.489Z,3.90
2023-03-13T06:25:23.589Z,4.55
2023-03-13T06:27:51.259Z,4.80
2023-03-13T06:30:19.566Z,5.50
2023-03-13T06:32:47.550Z,5.32
2023-03-13T06:35:16.874Z,6.75
2023-03-13T06:37:44.633Z,5.65
2023-03-13T06:40:13.692Z,5.95
2023-03-13T06:42:41.422Z,4.60
2023-03-13T06:45:10.640Z,6.85
2023-03-13T06:47:38.348Z,5.07
2023-03-13T06:50:06.901Z,5.57
2023-03-13T06:52:44.002Z,5.65
2023-03-13T06:55:13.127Z,6.65
2023-03-13T06:57:40.919Z,6.20
2023-03-13T07:00:11.375Z,6.70
2023-03-13T07:02:39.146Z,6.70
2023-03-13T07:05:08.193Z,4.63
2023-03-13T07:07:37.308Z,8.30
2023-03-13T07:10:05.748Z,5.93
2023-03-13T07:12:33.629Z,6.32
2023-03-13T07:15:01.335Z,6.20
2023-03-13T07:17:29.129Z,7.88
2023-03-13T07:19:56.871Z,5.25
2023-03-13T07:22:24.593Z,6.30
2023-03-13T07:24:53.700Z,5.88
2023-03-13T07:27:22.570Z,7.18
2023-03-13T07:29:50.525Z,7.40
2023-03-13T07:32:18.725Z,6.85
2023-03-13T07:34:46.579Z,8.60
2023-03-13T07:37:14.336Z,6.05
2023-03-13T07:39:43.218Z,5.00
2023-03-13T07:42:13.111Z,4.63
2023-03-13T07:44:42.061Z,4.47
2023-03-13T07:47:10.347Z,4.10
2023-03-13T07:49:42.116Z,5.18
2023-03-13T07:52:10.396Z,5.18
2023-03-13T07:54:38.218Z,5.78
2023-03-13T07:57:05.988Z,3.70
2023-03-13T07:59:35.044Z,3.85
2023-03-13T08:02:03.230Z,6.07
2023-03-13T08:04:30.933Z,3.97
2023-03-13T08:06:59.843Z,3.17
2023-03-13T08:09:27.535Z,4.63
2023-03-13T08:11:55.218Z,3.22
2023-03-13T08:14:22.927Z,2.97
2023-03-13T08:16:52.064Z,2.92
2023-03-13T08:19:19.789Z,5.53
2023-03-13T08:21:47.561Z,5.18
2023-03-13T08:24:15.243Z,2.85
2023-03-13T08:26:43.427Z,2.13
2023-03-13T08:29:13.126Z,4.00
2023-03-13T08:31:47.433Z,2.50
2023-03-13T08:34:17.762Z,4.57
2023-03-13T08:36:45.761Z,4.43
2023-03-13T08:39:14.997Z,7.28
2023-03-13T08:41:42.862Z,3.83
2023-03-13T08:44:12.965Z,4.38
2023-03-13T08:46:41.145Z,2.28
2023-03-13T08:49:09.682Z,3.70
2023-03-13T08:51:40.218Z,1.90
2023-03-13T08:54:07.988Z,4.60
2023-03-13T08:56:35.778Z,6.30
2023-03-13T08:59:05.698Z,2.65
2023-03-13T09:01:35.379Z,2.55
2023-03-13T09:04:04.728Z,4.10
2023-03-13T09:06:33.378Z,4.82
2023-03-13T09:09:03.236Z,2.50
2023-03-13T09:11:31.015Z,5.82
2023-03-13T09:13:59.671Z,3.42
2023-03-13T09:16:29.384Z,4.85
2023-03-13T09:18:58.283Z,4.97
2023-03-13T09:21:27.756Z,4.97
2023-03-13T09:23:55.560Z,2.85
2023-03-13T09:26:25.398Z,4.50
2023-03-13T09:28:53.404Z,4.18
2023-03-13T09:31:23.126Z,8.05
2023-03-13T09:33:51.833Z,4.78
2023-03-13T09:36:22.642Z,4.13
2023-03-13T09:38:51.025Z,6.57
2023-03-13T09:41:27.076Z,5.13
2023-03-13T09:44:01.616Z,4.93
2023-03-13T09:46:37.345Z,6.22
2023-03-13T09:49:11.240Z,5.05
2023-03-13T09:51:42.785Z,6.63
2023-03-13T09:54:18.682Z,4.68
2023-03-13T09:56:54.312Z,2.65
2023-03-13T09:59:30.434Z,4.77
2023-03-13T10:02:01.820Z,7.85
2023-03-13T10:04:36.673Z,5.00
2023-03-13T10:07:05.063Z,5.00
2023-03-13T10:09:36.727Z,4.18
2023-03-13T10:12:13.105Z,6.13
2023-03-13T10:14:47.749Z,2.63
2023-03-13T10:17:24.146Z,7.50
2023-03-13T10:22:27.757Z,4.28
2023-03-13T10:24:59.119Z,3.88
2023-03-13T10:27:28.683Z,3.42
2023-03-13T10:29:56.542Z,6.25
2023-03-13T10:32:24.317Z,4.60
2023-03-13T10:34:54.837Z,6.93
2023-03-13T10:37:25.443Z,2.88
2023-03-13T10:39:54.111Z,6.82
2023-03-13T10:42:27.721Z,4.93
2023-03-13T10:45:02.100Z,4.63
2023-03-13T10:47:34.712Z,6.25
2023-03-13T10:50:04.188Z,4.80
2023-03-13T10:52:36.251Z,5.75
2023-03-13T10:55:06.892Z,4.43
2023-03-13T10:57:36.293Z,4.03
2023-03-13T11:00:27.656Z,4.72
2023-03-13T11:02:55.971Z,5.22
2023-03-13T11:05:38.837Z,6.72
2023-03-13T11:08:20.784Z,4.00
2023-03-13T11:11:00.770Z,4.10
2023-03-13T11:13:36.997Z,6.72
2023-03-13T11:16:17.941Z,3.75
2023-03-13T11:18:58.259Z,5.43
2023-03-13T11:21:38.548Z,2.65
2023-03-13T11:24:12.947Z,2.92
2023-03-13T11:27:02.074Z,2.85
2023-03-13T11:29:43.488Z,4.18
2023-03-13T11:32:23.764Z,3.97
2023-03-13T11:34:56.013Z,3.15
2023-03-13T11:37:25.748Z,3.15
2023-03-13T11:40:05.646Z,3.25
2023-03-13T11:43:17.958Z,5.45
2023-03-13T11:46:16.001Z,3.35
2023-03-13T11:49:02.045Z,2.00
2023-03-13T11:51:37.438Z,4.10
2023-03-13T11:54:45.855Z,4.25
2023-03-13T11:57:19.449Z,3.97
2023-03-13T11:59:54.435Z,4.03
2023-03-13T12:02:27.139Z,1.98
2023-03-13T12:05:01.059Z,4.53
2023-03-13T12:07:33.778Z,3.08
2023-03-13T12:10:03.857Z,4.03
2023-03-13T12:12:41.449Z,2.40
2023-03-13T12:15:23.627Z,3.65
2023-03-13T12:17:57.761Z,3.17
2023-03-13T12:20:30.148Z,4.32
2023-03-13T12:23:15.283Z,5.65
2023-03-13T12:25:48.993Z,4.38
2023-03-13T12:28:26.758Z,2.33
2023-03-13T12:31:02.753Z,3.03
2023-03-13T12:33:35.882Z,2.53
2023-03-13T12:36:12.059Z,4.15
2023-03-13T12:38:45.101Z,5.65
2023-03-13T12:41:21.361Z,2.13
2023-03-13T12:44:07.188Z,6.53
2023-03-13T12:46:40.159Z,3.35
2023-03-13T12:49:24.082Z,5.90
2023-03-13T12:52:11.686Z,2.50
2023-03-13T12:54:57.095Z,1.13
2023-03-13T12:58:02.831Z,1.45
2023-03-13T13:00:34.155Z,3.55
2023-03-13T13:03:18.996Z,1.25
2023-03-13T13:06:07.909Z,1.30
2023-03-13T13:08:39.756Z,2.03
2023-03-13T13:11:47.162Z,2.55
2023-03-13T13:14:48.590Z,1.95
2023-03-13T13:17:20.399Z,2.85
2023-03-13T13:19:48.891Z,2.03
2023-03-13T13:22:46.874Z,1.70
2023-03-13T13:25:33.030Z,1.42
2023-03-13T13:30:54.616Z,0.80
2023-03-13T13:33:38.733Z,4.28
2023-03-13T13:36:30.267Z,1.33
2023-03-13T13:38:59.738Z,1.15
2023-03-13T13:41:37.035Z,4.90
2023-03-13T13:44:29.359Z,1.80
2023-03-13T13:46:59.391Z,2.30
2023-03-13T13:49:33.502Z,2.00
2023-03-13T13:52:34.610Z,3.28
2023-03-13T13:55:03.256Z,2.38
2023-03-13T13:57:37.176Z,3.55
2023-03-13T14:00:19.866Z,2.90
2023-03-13T14:02:52.402Z,4.65
2023-03-13T14:05:23.684Z,0.90
2023-03-13T14:07:56.591Z,2.78
2023-03-13T14:10:36.432Z,3.25
2023-03-13T14:13:14.012Z,1.40
2023-03-13T14:15:46.560Z,2.40
2023-03-13T14:18:21.557Z,0.80
2023-03-13T14:21:13.516Z,0.82
2023-03-13T14:23:43.480Z,3.88
2023-03-13T14:26:17.899Z,6.32
2023-03-13T14:28:49.277Z,5.93
2023-03-13T14:31:24.530Z,1.70
2023-03-13T14:33:52.744Z,2.92
2023-03-13T14:36:20.585Z,1.15
2023-03-13T14:38:56.234Z,1.00
2023-03-13T14:41:25.638Z,2.72
2023-03-13T14:43:55.876Z,0.80
2023-03-13T14:46:31.068Z,1.42
2023-03-13T14:49:06.451Z,2.35
2023-03-13T14:51:34.378Z,1.85
2023-03-13T14:54:03.713Z,1.25
2023-03-13T14:56:34.350Z,2.15
2023-03-13T14:59:16.173Z,1.25
2023-03-13T15:01:44.639Z,3.50
2023-03-13T15:04:12.484Z,4.25
2023-03-13T15:06:40.350Z,1.30
2023-03-13T15:09:19.805Z,2.97
2023-03-13T15:11:56.655Z,4.57
2023-03-13T15:14:37.808Z,2.55
2023-03-13T15:17:12.441Z,2.67
2023-03-13T15:19:40.168Z,4.10
2023-03-13T15:22:13.345Z,2.15
2023-03-13T15:24:41.035Z,3.97
2023-03-13T15:27:16.374Z,1.20
2023-03-13T15:29:47.814Z,2.63
2023-03-13T15:32:25.813Z,1.42
2023-03-13T15:34:58.341Z,0.80
2023-03-13T15:37:26.177Z,2.42
2023-03-13T15:39:54.265Z,1.67
2023-03-13T15:42:22.132Z,2.15
2023-03-13T15:44:51.270Z,0.82
2023-03-13T15:47:21.195Z,4.15
2023-03-13T15:49:49.394Z,1.60
2023-03-13T15:52:20.355Z,1.88
2023-03-13T15:54:48.101Z,2.25
2023-03-13T15:57:17.158Z,6.75
2023-03-13T15:59:45.233Z,6.68
2023-03-13T16:02:17.116Z,1.95
2023-03-13T16:04:44.937Z,1.42
2023-03-13T16:07:13.934Z,3.67
2023-03-13T16:09:42.378Z,1.10
2023-03-13T16:12:11.287Z,1.45
2023-03-13T16:14:40.153Z,2.15
2023-03-13T16:17:14.401Z,1.85
2023-03-13T16:19:43.607Z,2.13
2023-03-13T16:22:11.481Z,2.45
2023-03-13T16:24:39.414Z,2.75
2023-03-13T16:27:14.632Z,1.92
2023-03-13T16:29:42.383Z,1.35
2023-03-13T16:32:13.035Z,3.28
2023-03-13T16:34:40.835Z,2.08
2023-03-13T16:37:18.455Z,2.17
2023-03-13T16:39:48.113Z,1.92
2023-03-13T16:42:15.846Z,0.80
2023-03-13T16:44:43.573Z,4.43
2023-03-13T16:47:21.846Z,1.70
2023-03-13T16:49:49.931Z,1.67
2023-03-13T16:52:19.342Z,1.15
2023-03-13T16:54:47.505Z,1.85
2023-03-13T16:57:17.781Z,1.88
2023-03-13T16:59:45.584Z,1.33
2023-03-13T17:02:16.536Z,1.73
2023-03-13T17:04:45.157Z,1.55
2023-03-13T17:07:21.896Z,3.25
2023-03-13T17:12:18.741Z,1.50
2023-03-13T17:14:46.910Z,1.20
2023-03-13T17:17:17.537Z,1.75
2023-03-13T17:19:45.272Z,1.30
2023-03-13T17:22:13.895Z,1.52
2023-03-13T17:24:43.782Z,2.45
2023-03-13T17:27:14.096Z,1.70
2023-03-13T17:29:42.241Z,3.22
2023-03-13T17:32:11.708Z,4.10
2023-03-13T17:34:39.746Z,2.17
2023-03-13T17:37:15.329Z,3.47
2023-03-13T17:39:44.639Z,1.15
2023-03-13T17:42:12.921Z,1.70
2023-03-13T17:44:41.146Z,2.00
2023-03-13T17:47:13.379Z,2.10
2023-03-13T17:49:41.138Z,2.90
2023-03-13T17:52:13.744Z,2.63
2023-03-13T17:54:41.525Z,2.95
2023-03-13T17:57:15.567Z,4.00
2023-03-13T17:59:43.580Z,2.08
2023-03-13T18:02:12.382Z,3.25
2023-03-13T18:04:40.359Z,3.15
2023-03-13T18:07:16.665Z,3.05
2023-03-13T18:09:47.598Z,1.95
2023-03-13T18:12:17.578Z,2.72
2023-03-13T18:14:45.704Z,3.53
2023-03-13T18:17:19.200Z,2.05
2023-03-13T18:19:47.404Z,3.08
2023-03-13T18:22:16.362Z,2.85
2023-03-13T18:24:44.906Z,2.03
2023-03-13T18:27:14.692Z,2.42
2023-03-13T18:29:44.568Z,2.13
2023-03-13T18:32:14.440Z,2.38
2023-03-13T18:34:42.351Z,4.07
2023-03-13T18:37:20.757Z,6.15
2023-03-13T18:39:49.900Z,1.98
2023-03-13T18:42:18.079Z,4.22
2023-03-13T18:44:47.174Z,2.65
2023-03-13T18:47:16.761Z,3.28
2023-03-13T18:49:44.977Z,1.80
2023-03-13T18:52:12.908Z,3.13
2023-03-13T18:54:40.655Z,5.22
2023-03-13T18:57:13.677Z,4.10
2023-03-13T18:59:41.485Z,2.75
2023-03-13T19:02:14.184Z,3.63
2023-03-13T19:04:42.068Z,6.53
2023-03-13T19:07:15.744Z,3.00
2023-03-13T19:09:45.456Z,2.08
2023-03-13T19:12:15.443Z,3.50
2023-03-13T19:14:43.561Z,6.75
2023-03-13T19:17:20.050Z,2.60
2023-03-13T19:19:47.760Z,4.63
2023-03-13T19:22:15.453Z,3.45
2023-03-13T19:24:43.253Z,3.83
2023-03-13T19:27:16.671Z,1.77
2023-03-13T19:29:45.021Z,6.88
2023-03-13T19:32:15.663Z,4.25
2023-03-13T19:34:44.007Z,2.40
2023-03-13T19:37:12.362Z,3.53
2023-03-13T19:39:40.138Z,2.38
2023-03-13T19:42:08.189Z,4.30
2023-03-13T19:44:36.468Z,2.72
2023-03-13T19:47:05.637Z,2.53
2023-03-13T19:49:34.700Z,2.08
2023-03-13T19:52:02.389Z,3.20
2023-03-13T19:54:30.099Z,4.00
2023-03-13T19:56:58.578Z,3.88
2023-03-13T19:59:27.692Z,3.92
2023-03-13T20:01:56.472Z,6.28
2023-03-13T20:04:25.050Z,2.60
2023-03-13T20:06:54.155Z,2.55
2023-03-13T20:09:23.026Z,9.43
2023-03-13T20:11:50.994Z,3.97
2023-03-13T20:14:18.737Z,3.05
2023-03-13T20:16:48.856Z,3.88
2023-03-13T20:19:17.329Z,6.53
2023-03-13T20:21:46.525Z,2.97
2023-03-13T20:24:16.224Z,2.97
2023-03-13T20:26:43.950Z,7.03
2023-03-13T20:29:11.687Z,3.30
2023-03-13T20:31:39.759Z,1.70
2023-03-13T20:34:07.935Z,6.57
2023-03-13T20:36:35.665Z,3.40
2023-03-13T20:39:05.450Z,3.17
2023-03-13T20:41:34.776Z,6.45
2023-03-13T20:44:02.476Z,3.80
2023-03-13T20:46:30.261Z,4.07
2023-03-13T20:48:59.092Z,17.05
2023-03-13T20:51:27.708Z,2.90
2023-03-13T20:53:55.493Z,3.17
2023-03-13T20:56:23.189Z,2.50
2023-03-13T20:58:52.284Z,3.67
2023-03-13T21:01:20.871Z,6.43
2023-03-13T21:03:49.452Z,4.05
2023-03-13T21:06:18.710Z,4.30
2023-03-13T21:08:47.264Z,5.07
2023-03-13T21:11:16.124Z,5.55
2023-03-13T21:13:43.937Z,3.55
2023-03-13T21:16:14.061Z,11.75
2023-03-13T21:18:42.682Z,5.03
2023-03-13T21:21:13.335Z,3.60
2023-03-13T21:23:41.544Z,3.05
2023-03-13T21:26:09.578Z,3.88
2023-03-13T21:28:37.558Z,4.78
2023-03-13T21:31:09.257Z,4.50
2023-03-13T21:33:38.607Z,4.97
2023-03-13T21:36:07.127Z,6.85
2023-03-13T21:38:34.881Z,3.65
2023-03-13T21:41:02.698Z,4.65
2023-03-13T21:43:30.412Z,5.35
2023-03-13T21:45:59.261Z,3.33
2023-03-13T21:48:27.099Z,4.15
2023-03-13T21:50:56.206Z,4.10
2023-03-13T21:53:23.955Z,4.85
2023-03-13T21:55:52.454Z,7.22
2023-03-13T21:58:20.208Z,6.95
2023-03-13T22:00:48.038Z,3.70
2023-03-13T22:03:15.856Z,6.78
2023-03-13T22:05:44.736Z,3.88
2023-03-13T22:08:14.377Z,5.03
2023-03-13T22:10:47.776Z,3.47
2023-03-13T22:13:15.767Z,4.32
2023-03-13T22:15:46.208Z,3.83
2023-03-13T22:18:14.289Z,2.80
2023-03-13T22:20:42.427Z,5.20
2023-03-13T22:23:11.030Z,5.07
2023-03-13T22:25:40.811Z,4.18
2023-03-13T22:28:08.917Z,5.72
2023-03-13T22:30:37.975Z,6.07
2023-03-13T22:33:06.779Z,8.98
2023-03-13T22:35:35.007Z,6.80
2023-03-13T22:38:02.939Z,8.07
2023-03-13T22:40:30.620Z,3.50
2023-03-13T22:42:59.818Z,4.78
2023-03-13T22:45:27.528Z,3.38
2023-03-13T22:47:55.266Z,5.32
2023-03-13T22:50:25.607Z,4.88
2023-03-13T22:52:53.536Z,7.38
2023-03-13T22:55:21.373Z,3.65
2023-03-13T22:57:49.135Z,3.20
2023-03-13T23:00:19.265Z,3.83
2023-03-13T23:02:47.737Z,4.97
2023-03-13T23:05:15.632Z,6.38
2023-03-13T23:07:44.478Z,4.00
2023-03-13T23:10:13.271Z,4.05
2023-03-13T23:12:41.038Z,5.00
2023-03-13T23:15:10.605Z,9.68
2023-03-13T23:17:39.940Z,2.72
2023-03-13T23:20:13.025Z,4.95
2023-03-13T23:22:43.975Z,4.63
2023-03-13T23:25:13.656Z,3.13
2023-03-13T23:27:42.169Z,2.25
2023-03-13T23:30:11.994Z,5.13
2023-03-13T23:32:42.943Z,6.15
2023-03-13T23:35:11.811Z,3.25
2023-03-13T23:37:39.882Z,1.98
2023-03-13T23:40:11.805Z,5.15
2023-03-13T23:42:39.729Z,3.35
2023-03-13T23:45:09.116Z,5.95
2023-03-13T23:47:36.883Z,3.38
2023-03-13T23:50:06.926Z,4.15
2023-03-13T23:52:35.186Z,4.28
2023-03-13T23:55:03.204Z,4.57
2023-03-13T23:57:31.141Z,4.63
